Time;durP1;ratioP1;P1;durP2;ratioP2;P2;SDS_P1;SDS_P2;PMS_P1;PMS_P2;Temp;Humidity;BMP_temperature;BMP_pressure;BME280_temperature;BME280_humidity;BME280_pressure;Samples;Min_cycle;Max_cycle;Signal;HPM_P1;HPM_P2
2021/07/23 00:02:03;;;;;;;;;12.75;12.75;;;;;25.96;43.71;101346.47;6247799;22;45476;-69
2021/07/23 00:04:28;;;;;;;;;15.00;15.00;;;;;26.04;43.95;101360.34;6194961;22;46858;-69
2021/07/23 00:06:54;;;;;;;;;12.00;10.75;;;;;25.70;43.88;101314.03;6247774;22;45189;-69
2021/07/23 00:09:19;;;;;;;;;16.50;15.00;;;;;25.79;43.89;101328.75;6247760;22;45835;-69
2021/07/23 00:11:44;;;;;;;;;13.50;13.00;;;;;25.72;43.65;101316.63;6220181;22;45417;-68
2021/07/23 00:14:10;;;;;;;;;13.25;13.00;;;;;25.74;43.93;101319.25;6247236;22;45395;-69
2021/07/23 00:16:36;;;;;;;;;12.50;11.75;;;;;25.58;43.98;101300.59;6247846;22;45204;-69
2021/07/23 00:19:02;;;;;;;;;14.25;14.25;;;;;25.61;44.01;101301.19;6247970;22;45263;-69
2021/07/23 00:21:27;;;;;;;;;14.00;14.00;;;;;25.66;43.89;101323.53;6247925;22;45497;-69
2021/07/23 00:23:53;;;;;;;;;17.25;14.75;;;;;25.62;44.25;101324.78;6219912;22;47152;-68
2021/07/23 00:26:19;;;;;;;;;14.75;13.75;;;;;25.62;44.52;101324.78;6220329;22;45308;-69
2021/07/23 00:28:45;;;;;;;;;11.50;11.00;;;;;25.69;44.29;101346.97;6248182;22;45272;-69
2021/07/23 00:31:10;;;;;;;;;11.00;11.00;;;;;25.55;44.61;101323.56;6220305;22;45251;-69
2021/07/23 00:33:36;;;;;;;;;13.75;13.75;;;;;25.41;44.35;101304.75;6245199;22;47264;-69
2021/07/23 00:36:01;;;;;;;;;12.75;12.25;;;;;25.53;45.12;101331.06;6247579;22;45271;-68
2021/07/23 00:38:27;;;;;;;;;11.75;11.75;;;;;25.27;44.89;101284.09;6247708;22;45265;-69
2021/07/23 00:40:52;;;;;;;;;14.25;13.25;;;;;25.30;44.44;101298.38;6247075;22;45567;-69
2021/07/23 00:43:18;;;;;;;;;9.50;9.50;;;;;25.32;45.14;101303.69;6247453;22;45442;-69
2021/07/23 00:45:43;;;;;;;;;14.25;14.25;;;;;25.18;44.63;101288.47;6247713;22;45292;-69
2021/07/23 00:48:09;;;;;;;;;12.25;11.00;;;;;25.43;45.20;101330.13;6247753;22;45186;-69
2021/07/23 00:50:34;;;;;;;;;16.00;13.75;;;;;25.29;44.79;101313.03;6247536;22;45241;-68
2021/07/23 00:53:03;;;;;;;;;13.75;11.75;;;;;25.24;44.85;101308.91;6247180;22;46392;-69
2021/07/23 00:55:28;;;;;;;;;13.75;12.75;;;;;25.18;45.13;101301.28;6247499;22;45412;-69
2021/07/23 00:57:56;;;;;;;;;19.00;16.75;;;;;25.32;45.26;101310.03;6247779;22;45329;-69
2021/07/23 01:00:22;;;;;;;;;13.25;12.25;;;;;25.08;44.97;101284.81;6247582;22;45317;-68
2021/07/23 01:02:48;;;;;;;;;12.00;12.00;;;;;25.35;45.11;101336.22;6246926;22;46275;-68
2021/07/23 01:05:13;;;;;;;;;14.00;14.00;;;;;25.14;45.35;101309.72;6247800;22;45256;-68
2021/07/23 01:07:39;;;;;;;;;12.00;11.75;;;;;25.03;45.39;101284.31;6247462;22;45322;-69
2021/07/23 01:10:05;;;;;;;;;14.25;14.25;;;;;24.78;45.52;101256.38;6245510;22;45514;-68
2021/07/23 01:12:34;;;;;;;;;13.00;13.00;;;;;24.99;45.69;101289.16;6246716;22;45499;-68
2021/07/23 01:14:59;;;;;;;;;14.00;13.00;;;;;24.91;45.64;101275.31;6247325;22;45387;-68
2021/07/23 01:17:26;;;;;;;;;12.50;11.25;;;;;24.87;45.74;101273.81;6247439;22;45361;-69
2021/07/23 01:19:58;;;;;;;;;13.50;12.50;;;;;24.86;45.83;101278.44;6219989;22;45438;-69
2021/07/23 01:22:28;;;;;;;;;12.75;12.50;;;;;24.89;45.39;101285.47;6246876;22;45529;-68
2021/07/23 01:24:55;;;;;;;;;12.75;11.25;;;;;24.87;46.24;101291.06;6246922;22;45225;-69
2021/07/23 01:27:20;;;;;;;;;15.25;13.50;;;;;25.07;46.16;101318.56;6247683;22;45244;-69
2021/07/23 01:29:46;;;;;;;;;12.00;12.00;;;;;24.78;45.98;101280.94;6247210;22;45537;-69
2021/07/23 01:32:11;;;;;;;;;11.50;11.50;;;;;24.93;46.37;101303.34;6246937;22;46312;-69
2021/07/23 01:34:38;;;;;;;;;14.00;12.00;;;;;24.64;45.42;101257.53;6219706;22;45617;-69
2021/07/23 01:37:03;;;;;;;;;12.75;12.00;;;;;24.78;46.21;101278.22;6247266;22;45304;-69
2021/07/23 01:39:32;;;;;;;;;13.75;13.50;;;;;24.82;46.14;101287.84;6247023;22;45287;-69
2021/07/23 01:41:57;;;;;;;;;12.50;12.50;;;;;24.89;45.92;101299.13;6247070;22;45334;-69
2021/07/23 01:44:22;;;;;;;;;14.00;13.25;;;;;24.67;46.36;101265.44;6246834;22;45327;-69
2021/07/23 01:46:48;;;;;;;;;15.25;14.00;;;;;24.66;46.70;101263.72;6247191;22;45744;-69
2021/07/23 01:49:13;;;;;;;;;12.75;12.75;;;;;24.65;46.10;101267.44;6247084;22;45446;-69
2021/07/23 01:51:39;;;;;;;;;17.00;13.25;;;;;24.56;46.14;101257.31;6246922;22;45251;-69
2021/07/23 01:54:04;;;;;;;;;13.00;13.00;;;;;24.55;46.16;101259.16;6220305;22;45260;-69
2021/07/23 01:56:30;;;;;;;;;11.75;11.75;;;;;24.46;46.46;101249.00;6248576;22;45098;-69
2021/07/23 01:58:55;;;;;;;;;13.50;13.25;;;;;24.60;46.65;101266.97;6248257;22;45247;-69
2021/07/23 02:01:20;;;;;;;;;13.00;13.00;;;;;24.54;46.29;101261.97;6248527;22;45319;-69
2021/07/23 02:03:46;;;;;;;;;12.00;12.00;;;;;24.50;46.21;101265.97;6248493;22;45138;-69
2021/07/23 02:06:11;;;;;;;;;12.75;11.75;;;;;24.41;46.61;101256.69;6248651;22;45215;-69
2021/07/23 02:08:37;;;;;;;;;16.25;15.25;;;;;24.28;46.47;101239.59;6248349;22;45162;-69
2021/07/23 02:11:05;;;;;;;;;14.75;12.25;;;;;24.55;46.75;101288.31;6248248;22;45539;-69
2021/07/23 02:13:30;;;;;;;;;12.75;12.75;;;;;24.56;46.82;101300.97;6220576;22;45314;-69
2021/07/23 02:15:56;;;;;;;;;19.50;14.50;;;;;24.32;46.82;101263.75;6248481;22;45299;-68
2021/07/23 02:18:21;;;;;;;;;14.50;13.25;;;;;24.14;47.33;101230.69;6245918;22;45384;-68
2021/07/23 02:20:46;;;;;;;;;15.50;14.25;;;;;24.31;46.95;101253.00;6248356;22;45375;-69
2021/07/23 02:23:12;;;;;;;;;16.50;16.50;;;;;24.39;46.57;101280.47;6247366;22;45363;-69
2021/07/23 02:25:37;;;;;;;;;14.25;13.50;;;;;24.29;46.94;101260.41;6248572;22;45166;-69
2021/07/23 02:28:03;;;;;;;;;16.25;13.00;;;;;24.15;47.48;101245.19;6248293;22;45233;-69
2021/07/23 02:30:29;;;;;;;;;13.75;13.00;;;;;24.37;46.93;101280.63;6248021;22;45411;-68
2021/07/23 02:32:55;;;;;;;;;16.00;15.00;;;;;24.23;46.95;101259.94;6248003;22;45193;-69
2021/07/23 02:35:21;;;;;;;;;14.00;14.00;;;;;24.12;47.66;101238.13;6246458;22;45248;-69
2021/07/23 02:37:46;;;;;;;;;16.00;15.00;;;;;24.27;47.51;101263.25;6248333;22;45263;-69
2021/07/23 02:40:12;;;;;;;;;12.25;12.25;;;;;24.00;47.93;101226.34;6248433;22;45378;-69
2021/07/23 02:42:37;;;;;;;;;16.00;16.00;;;;;24.11;47.72;101243.72;6220229;22;45364;-69
2021/07/23 02:45:03;;;;;;;;;14.50;13.50;;;;;24.13;47.83;101250.78;6248635;22;45136;-69
2021/07/23 02:47:29;;;;;;;;;13.00;11.50;;;;;23.91;47.82;101218.09;6248025;22;45378;-68
2021/07/23 02:49:54;;;;;;;;;14.50;13.25;;;;;24.06;47.79;101246.81;6220797;22;46796;-69
2021/07/23 02:52:20;;;;;;;;;15.75;15.75;;;;;23.94;47.88;101223.25;6248200;22;45386;-69
2021/07/23 02:54:45;;;;;;;;;13.25;12.25;;;;;24.05;47.87;101250.53;6248295;22;45321;-68
2021/07/23 02:57:10;;;;;;;;;15.75;15.00;;;;;24.21;48.14;101269.25;6248393;22;45407;-69
2021/07/23 02:59:36;;;;;;;;;15.75;15.00;;;;;23.86;48.16;101211.13;6248259;22;45296;-68
2021/07/23 03:02:01;;;;;;;;;17.75;16.00;;;;;23.88;48.21;101211.00;6247905;22;45268;-69
2021/07/23 03:04:27;;;;;;;;;18.00;14.50;;;;;24.02;48.03;101235.31;6247851;22;45323;-68
2021/07/23 03:06:53;;;;;;;;;16.50;16.50;;;;;23.93;47.98;101225.13;6248208;22;45269;-69
2021/07/23 03:09:18;;;;;;;;;14.25;14.25;;;;;23.83;48.34;101216.81;6247773;22;45365;-69
2021/07/23 03:11:43;;;;;;;;;17.75;16.00;;;;;23.78;47.97;101218.16;6248199;22;45172;-69
2021/07/23 03:14:09;;;;;;;;;15.50;13.75;;;;;23.72;48.72;101207.75;6247341;22;45157;-69
2021/07/23 03:16:34;;;;;;;;;15.25;13.00;;;;;23.86;48.39;101224.75;6248104;22;45526;-68
2021/07/23 03:19:00;;;;;;;;;13.50;13.50;;;;;23.75;48.37;101211.09;6247896;22;45261;-69
2021/07/23 03:21:25;;;;;;;;;13.25;13.25;;;;;23.85;48.62;101224.88;6248103;22;45221;-69
2021/07/23 03:23:51;;;;;;;;;14.00;14.00;;;;;23.84;48.64;101220.44;6247510;22;45782;-68
2021/07/23 03:26:16;;;;;;;;;13.50;13.00;;;;;23.89;48.33;101231.84;6220617;22;45217;-68
2021/07/23 03:28:42;;;;;;;;;15.25;14.00;;;;;23.84;48.64;101212.25;6248035;22;46147;-69
2021/07/23 03:31:12;;;;;;;;;23.00;19.50;;;;;23.80;48.96;101211.59;6247950;22;45254;-69
2021/07/23 03:33:37;;;;;;;;;13.25;13.25;;;;;23.76;48.82;101209.25;6247607;22;45258;-68
2021/07/23 03:36:03;;;;;;;;;21.75;16.75;;;;;23.80;48.82;101224.34;6248011;22;45505;-68
2021/07/23 03:38:31;;;;;;;;;15.50;14.50;;;;;23.69;48.46;101208.88;6247606;22;45518;-68
2021/07/23 03:40:57;;;;;;;;;16.00;16.00;;;;;23.75;48.87;101216.53;6245836;22;45653;-68
2021/07/23 03:43:22;;;;;;;;;11.75;11.75;;;;;23.62;48.80;101194.88;6245769;22;45173;-69
2021/07/23 03:45:48;;;;;;;;;17.25;15.00;;;;;23.81;49.08;101228.81;6220518;22;45984;-69
2021/07/23 03:48:13;;;;;;;;;18.50;16.50;;;;;23.66;48.91;101200.94;6220244;22;47052;-68
2021/07/23 03:50:38;;;;;;;;;17.50;17.00;;;;;23.50;48.93;101163.16;6220662;22;45405;-68
2021/07/23 03:53:04;;;;;;;;;20.25;16.25;;;;;23.74;48.92;101198.47;6220252;22;45403;-68
2021/07/23 03:55:29;;;;;;;;;18.50;16.25;;;;;23.57;49.15;101177.16;6247855;22;45398;-69
2021/07/23 03:57:55;;;;;;;;;15.75;14.00;;;;;23.56;49.43;101159.09;6247711;22;45288;-69
2021/07/23 04:00:20;;;;;;;;;20.50;17.00;;;;;23.57;49.38;101164.41;6247978;22;45387;-68
2021/07/23 04:02:45;;;;;;;;;18.00;17.00;;;;;23.48;49.52;101154.25;6247492;22;45205;-68
2021/07/23 04:05:11;;;;;;;;;16.75;16.00;;;;;23.48;49.40;101151.53;6247922;22;45809;-68
2021/07/23 04:07:36;;;;;;;;;15.50;14.25;;;;;23.67;49.71;101198.09;6247310;22;45403;-68
2021/07/23 04:10:03;;;;;;;;;19.25;18.50;;;;;23.54;49.82;101170.09;6247632;22;45326;-69
2021/07/23 04:12:28;;;;;;;;;14.25;12.50;;;;;23.39;49.83;101161.31;6247807;22;45366;-68
2021/07/23 04:14:54;;;;;;;;;16.25;16.25;;;;;23.55;50.16;101181.88;6247202;22;45427;-69
2021/07/23 04:17:19;;;;;;;;;17.25;17.00;;;;;23.41;49.58;101172.09;6218941;22;46819;-68
2021/07/23 04:19:45;;;;;;;;;20.00;16.75;;;;;23.52;49.87;101202.03;6247732;22;45198;-69
2021/07/23 04:22:10;;;;;;;;;15.25;13.75;;;;;23.29;50.40;101163.03;6247859;22;45166;-68
2021/07/23 04:24:37;;;;;;;;;15.75;15.00;;;;;23.27;49.99;101162.25;6247591;22;45190;-68
2021/07/23 04:27:02;;;;;;;;;18.50;16.00;;;;;23.30;50.22;101168.38;6247580;22;45578;-69
2021/07/23 04:29:28;;;;;;;;;14.75;14.75;;;;;23.38;50.24;101169.59;6247394;22;45224;-68
2021/07/23 04:31:53;;;;;;;;;15.75;15.75;;;;;23.24;50.75;101149.78;6247807;22;45086;-69
2021/07/23 04:34:19;;;;;;;;;18.75;17.50;;;;;23.41;50.53;101169.34;6247338;22;45562;-69
2021/07/23 04:36:44;;;;;;;;;14.75;13.25;;;;;23.25;50.32;101139.75;6247587;22;45400;-69
2021/07/23 04:39:09;;;;;;;;;19.50;18.00;;;;;23.30;50.30;101154.75;6247198;22;45225;-69
2021/07/23 04:41:35;;;;;;;;;19.25;17.00;;;;;23.24;49.99;101140.75;6247878;22;45279;-68
2021/07/23 04:44:00;;;;;;;;;20.00;18.75;;;;;23.19;50.00;101143.84;6247496;22;45493;-69
2021/07/23 04:46:25;;;;;;;;;18.00;16.00;;;;;23.31;50.79;101169.22;6247521;22;45320;-68
2021/07/23 04:48:51;;;;;;;;;16.50;14.50;;;;;23.21;50.58;101152.72;6247303;22;45212;-68
2021/07/23 04:51:16;;;;;;;;;17.50;16.50;;;;;23.08;50.45;101141.09;6266110;22;45296;-69
2021/07/23 04:53:42;;;;;;;;;15.75;15.75;;;;;22.92;50.14;101112.31;6277793;22;45346;-68
2021/07/23 04:56:07;;;;;;;;;16.25;15.50;;;;;23.08;51.03;101141.94;6278208;22;45593;-69
2021/07/23 04:58:33;;;;;;;;;19.50;19.00;;;;;23.16;50.47;101154.09;6278382;22;45266;-68
2021/07/23 05:00:59;;;;;;;;;20.25;20.25;;;;;23.21;50.45;101174.53;6278719;22;45256;-69
2021/07/23 05:03:33;;;;;;;;;16.00;13.50;;;;;23.06;50.90;101157.53;6277989;22;45182;-69
2021/07/23 05:05:58;;;;;;;;;17.75;17.50;;;;;23.10;50.43;101161.78;6278392;22;45239;-69
2021/07/23 05:08:24;;;;;;;;;20.25;17.00;;;;;23.17;50.65;101167.59;6278202;22;45169;-69
2021/07/23 05:10:49;;;;;;;;;17.50;15.50;;;;;23.05;50.86;101138.56;6250690;22;45266;-68
2021/07/23 05:13:15;;;;;;;;;18.00;18.00;;;;;23.07;50.88;101144.78;6277929;22;45169;-69
2021/07/23 05:15:40;;;;;;;;;21.25;16.50;;;;;23.09;50.75;101148.28;6278076;22;45927;-68
2021/07/23 05:18:10;;;;;;;;;24.75;22.25;;;;;23.07;50.58;101150.22;6278283;22;45182;-69
2021/07/23 05:20:37;;;;;;;;;16.50;15.25;;;;;23.13;50.78;101155.19;6278175;22;45377;-68
2021/07/23 05:23:02;;;;;;;;;17.50;17.50;;;;;22.95;50.60;101127.53;6277353;22;45402;-68
2021/07/23 05:25:28;;;;;;;;;20.25;18.25;;;;;23.02;51.54;101138.81;6250211;22;48120;-69
2021/07/23 05:27:55;;;;;;;;;17.00;16.50;;;;;23.02;51.34;101138.81;6278973;22;45308;-69
2021/07/23 05:30:20;;;;;;;;;16.50;15.00;;;;;22.93;51.12;101127.66;6279724;22;45176;-68
2021/07/23 05:32:45;;;;;;;;;16.50;16.50;;;;;23.08;50.62;101146.53;6278679;22;45455;-69
2021/07/23 05:35:11;;;;;;;;;20.50;17.50;;;;;23.01;51.30;101132.50;6279373;22;45181;-68
2021/07/23 05:37:36;;;;;;;;;18.50;17.00;;;;;23.20;51.28;101166.47;6279148;22;45094;-69
2021/07/23 05:40:02;;;;;;;;;17.50;15.75;;;;;23.01;51.19;101139.81;6279510;22;45144;-69
2021/07/23 05:42:27;;;;;;;;;18.75;16.50;;;;;23.17;51.42;101167.59;6278763;22;45079;-69
2021/07/23 05:44:52;;;;;;;;;21.75;20.00;;;;;22.99;51.22;101137.19;6279504;22;45418;-69
2021/07/23 05:47:21;;;;;;;;;19.00;18.50;;;;;23.00;51.29;101129.91;6276475;22;45633;-69
2021/07/23 05:49:46;;;;;;;;;17.50;16.75;;;;;22.99;51.03;101131.75;6278942;22;45271;-69
2021/07/23 05:52:11;;;;;;;;;19.50;17.25;;;;;22.89;51.16;101112.56;6279024;22;45456;-72
2021/07/23 05:54:37;;;;;;;;;19.00;18.25;;;;;23.00;50.97;101130.75;6278712;22;46275;-72
2021/07/23 05:57:03;;;;;;;;;18.00;17.25;;;;;22.82;51.34;101105.88;6279429;22;45259;-72
2021/07/23 05:59:28;;;;;;;;;22.00;19.00;;;;;23.07;51.45;101145.66;6278282;22;45445;-72
2021/07/23 06:01:53;;;;;;;;;22.75;21.75;;;;;22.80;51.04;101105.09;6279231;22;45501;-73
2021/07/23 06:04:19;;;;;;;;;19.00;19.00;;;;;23.15;51.70;101157.81;6276121;22;47068;-73
2021/07/23 06:06:44;;;;;;;;;19.75;17.75;;;;;23.13;51.38;101157.91;6279513;22;45215;-72
2021/07/23 06:09:09;;;;;;;;;20.25;18.25;;;;;22.83;51.31;101095.84;6250809;22;45316;-73
2021/07/23 06:11:38;;;;;;;;;20.75;19.25;;;;;23.07;51.40;101142.06;6279081;22;45553;-73
2021/07/23 06:14:05;;;;;;;;;19.50;18.25;;;;;22.85;51.61;101104.75;6278659;22;46114;-72
2021/07/23 06:16:30;;;;;;;;;19.50;18.75;;;;;22.80;51.06;101094.22;6279535;22;45430;-72
2021/07/23 06:18:55;;;;;;;;;20.00;16.75;;;;;22.61;51.79;101053.13;6279217;22;45363;-72
2021/07/23 06:21:21;;;;;;;;;19.25;18.00;;;;;22.90;51.54;101099.81;6279187;22;45381;-71
2021/07/23 06:23:47;;;;;;;;;22.25;21.75;;;;;22.79;51.55;101081.63;6277506;22;45818;-72
2021/07/23 06:26:12;;;;;;;;;21.75;18.75;;;;;23.06;51.86;101127.59;6278076;22;45350;-72
2021/07/23 06:28:38;;;;;;;;;19.75;19.50;;;;;22.81;51.56;101093.25;6278195;22;45587;-72
2021/07/23 06:31:04;;;;;;;;;24.25;22.25;;;;;23.05;51.42;101120.38;6250940;22;45574;-72
2021/07/23 06:33:30;;;;;;;;;18.25;18.25;;;;;23.10;51.77;101130.94;6250863;22;47100;-72
2021/07/23 06:35:56;;;;;;;;;20.25;17.25;;;;;22.80;51.91;101079.75;6278370;22;45263;-73
2021/07/23 06:38:25;;;;;;;;;19.25;19.25;;;;;22.87;51.83;101084.59;6278275;22;45260;-72
2021/07/23 06:40:53;;;;;;;;;22.50;21.50;;;;;22.97;51.36;101092.03;6277541;22;45671;-73
2021/07/23 06:43:19;;;;;;;;;24.50;21.00;;;;;23.16;51.57;101126.88;6278462;22;45545;-72
2021/07/23 06:45:52;;;;;;;;;22.00;20.00;;;;;23.08;51.83;101108.41;6278341;22;45732;-72
2021/07/23 06:48:18;;;;;;;;;20.75;19.50;;;;;22.98;51.35;101086.47;6278944;22;45270;-72
2021/07/23 06:50:46;;;;;;;;;19.50;18.50;;;;;22.79;51.81;101057.13;6278791;22;45438;-74
2021/07/23 06:53:11;;;;;;;;;20.00;18.50;;;;;23.00;51.54;101084.47;6266417;22;46226;-73
2021/07/23 06:55:37;;;;;;;;;20.00;20.00;;;;;23.05;51.65;101090.41;6271650;22;45264;-73
2021/07/23 06:58:02;;;;;;;;;16.50;16.50;;;;;22.81;51.47;101049.69;6277486;22;45246;-72
2021/07/23 07:00:28;;;;;;;;;22.00;19.75;;;;;22.68;51.90;101033.47;6277813;22;45582;-72
2021/07/23 07:02:53;;;;;;;;;20.75;19.00;;;;;22.79;51.79;101043.50;6277941;22;45106;-72
2021/07/23 07:05:20;;;;;;;;;23.75;23.00;;;;;22.93;51.41;101066.91;6277955;22;45525;-72
2021/07/23 07:07:48;;;;;;;;;19.50;19.25;;;;;23.23;51.37;101106.31;6272644;22;45369;-73
2021/07/23 07:10:14;;;;;;;;;19.50;19.00;;;;;23.15;51.69;101085.13;6278112;22;45307;-72
2021/07/23 07:12:39;;;;;;;;;19.00;18.00;;;;;23.28;51.52;101096.78;6275592;22;45955;-73
2021/07/23 07:15:05;;;;;;;;;25.50;21.25;;;;;23.07;51.35;101046.75;6277954;22;45339;-72
2021/07/23 07:17:31;;;;;;;;;20.00;20.00;;;;;23.33;51.10;101079.22;6278288;22;45299;-73
2021/07/23 07:19:59;;;;;;;;;19.25;18.25;;;;;22.95;51.79;101013.19;6276986;22;45596;-72
2021/07/23 07:22:25;;;;;;;;;22.25;19.00;;;;;23.07;51.59;101035.88;6277095;22;45512;-73
2021/07/23 07:24:51;;;;;;;;;21.25;20.50;;;;;23.41;51.47;101082.19;6250588;22;45343;-73
2021/07/23 07:27:16;;;;;;;;;20.50;20.00;;;;;23.29;51.11;101057.66;6278743;22;45340;-73
2021/07/23 07:29:42;;;;;;;;;25.00;23.25;;;;;23.33;51.00;101068.31;6277738;22;45383;-74
2021/07/23 07:32:09;;;;;;;;;21.00;19.75;;;;;23.10;51.96;101022.91;6277987;22;45946;-74
2021/07/23 07:34:44;;;;;;;;;19.00;18.50;;;;;23.16;51.62;101023.41;6250247;22;45189;-73
2021/07/23 07:37:14;;;;;;;;;22.75;20.75;;;;;23.33;51.93;101043.81;6250159;22;45424;-73
2021/07/23 07:39:43;;;;;;;;;17.75;17.75;;;;;23.53;51.57;101070.28;6278054;22;46094;-73
2021/07/23 07:42:08;;;;;;;;;24.75;22.00;;;;;23.34;51.43;101021.00;6277755;22;45445;-73
2021/07/23 07:44:34;;;;;;;;;20.75;20.75;;;;;23.77;50.58;101099.22;6277668;22;45144;-73
2021/07/23 07:47:02;;;;;;;;;21.50;20.00;;;;;23.51;51.35;101045.03;6275543;22;45458;-78
2021/07/23 07:49:28;;;;;;;;;23.50;21.25;;;;;23.65;51.09;101054.78;6271352;22;45465;-73
2021/07/23 07:51:53;;;;;;;;;23.00;19.75;;;;;23.49;50.38;101028.81;6274925;22;46886;-73
2021/07/23 07:54:21;;;;;;;;;21.75;19.75;;;;;23.90;50.31;101094.50;6277719;22;45332;-78
2021/07/23 07:56:51;;;;;;;;;21.25;19.00;;;;;23.49;50.67;101015.19;6249645;22;45367;-73
2021/07/23 07:59:28;;;;;;;;;18.50;17.25;;;;;23.57;50.62;101016.38;6274894;22;45395;-73
2021/07/23 08:02:06;;;;;;;;;21.75;20.00;;;;;23.65;50.44;101022.06;6275957;22;45623;-77
2021/07/23 08:04:31;;;;;;;;;21.75;19.50;;;;;23.77;50.58;101031.97;6277796;22;45710;-72
2021/07/23 08:06:57;;;;;;;;;17.50;17.50;;;;;24.12;50.18;101079.09;6278244;22;45789;-73
2021/07/23 08:09:22;;;;;;;;;19.00;17.50;;;;;23.85;50.72;101020.44;6276997;22;45506;-74
2021/07/23 08:11:48;;;;;;;;;22.75;20.25;;;;;24.04;50.49;101028.78;6277399;22;45441;-78
2021/07/23 08:14:13;;;;;;;;;19.50;18.50;;;;;24.33;49.86;101060.91;6277044;22;45488;-75
2021/07/23 08:16:38;;;;;;;;;23.75;19.25;;;;;24.22;50.30;101017.28;6278298;22;45710;-75
2021/07/23 08:19:04;;;;;;;;;18.25;16.00;;;;;24.39;50.31;101033.09;6277428;22;45414;-75
2021/07/23 08:21:32;;;;;;;;;22.50;20.00;;;;;24.65;50.15;101065.47;6273283;22;47232;-75
2021/07/23 08:24:00;;;;;;;;;21.25;20.75;;;;;24.51;49.56;101027.59;6249365;22;45626;-75
2021/07/23 08:26:25;;;;;;;;;22.50;22.00;;;;;24.52;49.80;101024.69;6277981;22;45339;-74
2021/07/23 08:28:51;;;;;;;;;21.25;21.25;;;;;24.65;49.53;101040.91;6275828;22;45413;-74
2021/07/23 08:31:17;;;;;;;;;22.50;21.50;;;;;24.66;49.46;101034.47;6277012;22;45311;-75
2021/07/23 08:33:43;;;;;;;;;21.50;20.25;;;;;24.76;49.47;101046.28;6277132;22;45334;-75
2021/07/23 08:36:10;;;;;;;;;20.75;20.25;;;;;24.88;48.67;101065.34;6277720;22;45299;-75
2021/07/23 08:38:35;;;;;;;;;20.50;19.25;;;;;24.59;49.49;101008.69;6249423;22;45268;-75
2021/07/23 08:41:02;;;;;;;;;19.75;18.25;;;;;24.95;48.67;101058.31;6276687;22;46135;-74
2021/07/23 08:43:27;;;;;;;;;21.00;20.50;;;;;24.69;48.86;101004.16;6276689;22;45209;-74
2021/07/23 08:45:53;;;;;;;;;20.50;18.00;;;;;25.05;48.93;101052.91;6249462;22;45592;-74
2021/07/23 08:48:18;;;;;;;;;19.25;18.25;;;;;24.85;49.52;101008.25;6277521;22;45537;-72
2021/07/23 08:50:44;;;;;;;;;20.25;19.25;;;;;24.83;49.29;100999.34;6277707;22;46487;-74
2021/07/23 08:53:09;;;;;;;;;22.00;20.25;;;;;24.98;49.21;101003.44;6249446;22;45488;-74
2021/07/23 08:55:35;;;;;;;;;23.75;22.25;;;;;25.27;48.68;101040.94;6277680;22;45269;-75
2021/07/23 08:58:01;;;;;;;;;17.00;17.00;;;;;25.09;48.47;101007.94;6277390;22;45352;-76
2021/07/23 09:00:27;;;;;;;;;22.50;19.25;;;;;25.25;48.41;101027.41;6248356;22;47534;-74
2021/07/23 09:02:52;;;;;;;;;19.75;18.50;;;;;25.42;48.86;101045.03;6275927;22;45406;-74
2021/07/23 09:05:19;;;;;;;;;19.00;17.50;;;;;25.45;47.88;101041.16;6277662;22;45306;-74
2021/07/23 09:07:45;;;;;;;;;19.50;18.00;;;;;25.25;47.90;100996.50;6249518;22;45482;-73
2021/07/23 09:10:12;;;;;;;;;18.00;17.00;;;;;25.55;48.40;101027.53;6277066;22;46240;-74
2021/07/23 09:12:45;;;;;;;;;19.25;18.25;;;;;25.54;48.50;101021.19;6276427;22;45299;-73
2021/07/23 09:15:37;;;;;;;;;17.50;17.00;;;;;25.50;47.97;101001.47;6277394;22;45329;-74
2021/07/23 09:18:04;;;;;;;;;17.25;15.50;;;;;25.58;48.39;101002.66;6277090;22;45622;-74
2021/07/23 09:20:30;;;;;;;;;19.00;18.25;;;;;25.59;47.75;100982.50;6276253;22;45348;-74
2021/07/23 09:22:58;;;;;;;;;18.00;18.00;;;;;25.64;48.06;100981.09;6276494;22;45174;-73
2021/07/23 09:25:38;;;;;;;;;16.25;16.00;;;;;25.72;47.64;100990.44;6277609;22;45387;-74
2021/07/23 09:28:22;;;;;;;;;17.75;16.25;;;;;25.62;47.21;100963.09;6277047;22;45474;-74
2021/07/23 09:30:48;;;;;;;;;20.50;20.50;;;;;25.97;46.98;101011.78;6276068;22;45482;-73
2021/07/23 09:33:13;;;;;;;;;18.25;18.25;;;;;26.02;47.82;101014.94;6276922;22;45220;-73
2021/07/23 09:35:53;;;;;;;;;19.75;18.25;;;;;25.97;47.75;100995.38;6277646;22;45232;-74
2021/07/23 09:38:20;;;;;;;;;22.50;20.75;;;;;25.90;47.13;100975.03;6276876;22;45541;-74
2021/07/23 09:40:45;;;;;;;;;19.25;16.75;;;;;26.09;48.25;100998.81;6276140;22;46518;-74
2021/07/23 09:43:11;;;;;;;;;22.25;18.00;;;;;26.07;47.06;100984.44;6276845;22;45267;-74
2021/07/23 09:45:37;;;;;;;;;18.00;17.00;;;;;26.05;46.98;100970.91;6277425;22;45197;-73
2021/07/23 09:48:13;;;;;;;;;19.00;19.00;;;;;26.11;46.52;100971.31;6249275;22;45483;-74
2021/07/23 09:50:40;;;;;;;;;19.25;17.75;;;;;26.32;46.58;100985.69;6276433;22;45686;-74
2021/07/23 09:53:19;;;;;;;;;16.25;16.25;;;;;26.04;46.82;100922.69;6275877;22;45233;-73
2021/07/23 09:55:47;;;;;;;;;22.25;19.00;;;;;26.41;46.93;100971.16;6249526;22;45481;-76
2021/07/23 10:08:47;;;;;;;;;21.50;21.50;;;;;26.18;46.35;100882.19;6029066;23;45691;-74
2021/07/23 10:15:43;;;;;;;;;;;;;;;;;;;;;
2021/07/23 10:18:33;;;;;;;;;19.25;18.00;;;;;26.73;46.33;100930.72;6051704;23;72982;-69
2021/07/23 10:21:02;;;;;;;;;20.00;19.25;;;;;26.49;46.29;100874.59;6101314;22;45657;-73
2021/07/23 10:23:31;;;;;;;;;22.75;21.25;;;;;26.55;46.36;100878.63;6276363;22;45408;-72
2021/07/23 10:25:58;;;;;;;;;20.75;19.50;;;;;26.50;45.76;100850.84;6253045;22;45338;-73
2021/07/23 10:28:36;;;;;;;;;21.50;19.50;;;;;26.83;46.10;100903.28;6246992;22;45369;-79
2021/07/23 10:31:24;;;;;;;;;20.00;20.00;;;;;26.85;45.48;100895.78;6245009;22;45493;-75
2021/07/23 10:34:03;;;;;;;;;;;;;;;;;;;;;
2021/07/23 10:39:19;;;;;;;;;21.75;19.75;;;;;26.62;46.39;100831.31;6242897;22;45549;-77
2021/07/23 10:41:50;;;;;;;;;19.50;18.50;;;;;27.02;46.01;100884.03;6243808;22;45581;-74
2021/07/23 10:44:27;;;;;;;;;22.00;21.50;;;;;27.04;45.25;100878.38;6245758;22;45320;-73
2021/07/23 10:46:54;;;;;;;;;22.50;22.25;;;;;27.08;46.16;100858.75;6245068;22;45424;-73
2021/07/23 10:49:30;;;;;;;;;24.25;24.25;;;;;27.12;45.45;100856.56;6244715;22;45468;-73
2021/07/23 10:51:59;;;;;;;;;20.50;17.75;;;;;27.14;45.50;100851.78;6245606;22;45361;-73
2021/07/23 10:54:31;;;;;;;;;20.50;20.50;;;;;26.96;45.12;100819.78;6244485;22;45402;-73
2021/07/23 10:56:57;;;;;;;;;16.25;16.25;;;;;27.20;44.58;100842.06;6246401;22;45560;-74
2021/07/23 10:59:38;;;;;;;;;22.00;20.00;;;;;27.24;45.13;100841.59;6245628;22;45589;-74
2021/07/23 11:02:16;;;;;;;;;18.50;18.50;;;;;27.28;44.64;100836.66;6244291;22;45380;-74
2021/07/23 11:04:51;;;;;;;;;18.50;18.50;;;;;27.14;44.11;100792.34;6246317;22;45346;-75
2021/07/23 11:07:23;;;;;;;;;15.00;14.50;;;;;27.26;43.52;100803.09;6245824;22;45907;-73
2021/07/23 11:09:48;;;;;;;;;15.25;14.25;;;;;27.14;42.93;100769.59;6246574;22;45483;-73
2021/07/23 11:12:18;;;;;;;;;16.25;15.00;;;;;27.24;42.73;100775.84;6270264;22;45460;-73
2021/07/23 11:15:05;;;;;;;;;11.75;11.00;;;;;27.33;42.96;100785.03;6272158;22;45425;-74
2021/07/23 11:17:31;;;;;;;;;20.25;16.75;;;;;27.47;43.16;100791.84;6277361;22;45304;-74
2021/07/23 11:20:01;;;;;;;;;14.75;14.50;;;;;27.44;43.49;100768.34;6277398;22;45441;-74
2021/07/23 11:22:29;;;;;;;;;16.00;15.25;;;;;27.50;43.08;100766.84;6276773;22;45326;-74
2021/07/23 11:24:56;;;;;;;;;17.50;17.00;;;;;27.78;42.69;100800.44;6274814;22;45480;-74
2021/07/23 11:27:33;;;;;;;;;15.25;15.25;;;;;27.81;42.71;100802.03;6277175;22;45425;-73
2021/07/23 11:30:22;;;;;;;;;16.75;16.00;;;;;27.58;42.68;100755.06;6272418;22;45653;-70